sensor_id;sensor_type;location;lat;lon;timestamp;temperature;humidity
71155;DHT22;59375;53.216;5.728;2022-07-17T12:04:14;28.20;58.30
71155;DHT22;59375;53.216;5.728;2022-07-17T12:06:40;28.50;58.10
71155;DHT22;59375;53.216;5.728;2022-07-17T12:09:07;28.60;57.10
71155;DHT22;59375;53.216;5.728;2022-07-17T12:11:33;28.50;57.60
71155;DHT22;59375;53.216;5.728;2022-07-17T12:14:09;28.60;57.40
71155;DHT22;59375;53.216;5.728;2022-07-17T12:16:36;28.60;56.00
71155;DHT22;59375;53.216;5.728;2022-07-17T12:24:25;28.70;56.20
71155;DHT22;59375;53.216;5.728;2022-07-17T12:26:52;28.60;56.70
71155;DHT22;59375;53.216;5.728;2022-07-17T12:29:18;28.60;56.80
71155;DHT22;59375;53.216;5.728;2022-07-17T12:31:44;28.70;57.90
71155;DHT22;59375;53.216;5.728;2022-07-17T12:34:10;28.70;55.90
71155;DHT22;59375;53.216;5.728;2022-07-17T12:36:36;28.70;56.40
71155;DHT22;59375;53.216;5.728;2022-07-17T12:39:01;28.80;57.20
71155;DHT22;59375;53.216;5.728;2022-07-17T12:41:27;28.80;56.80
71155;DHT22;59375;53.216;5.728;2022-07-17T12:43:53;28.80;56.30
71155;DHT22;59375;53.216;5.728;2022-07-17T12:46:18;28.80;56.80
71155;DHT22;59375;53.216;5.728;2022-07-17T12:48:44;28.80;57.10
71155;DHT22;59375;53.216;5.728;2022-07-17T12:51:11;28.80;57.50
71155;DHT22;59375;53.216;5.728;2022-07-17T12:53:39;28.80;59.70
71155;DHT22;59375;53.216;5.728;2022-07-17T12:56:05;28.90;59.90
71155;DHT22;59375;53.216;5.728;2022-07-17T12:58:32;28.80;60.00
71155;DHT22;59375;53.216;5.728;2022-07-17T13:00:57;28.80;59.80
71155;DHT22;59375;53.216;5.728;2022-07-17T13:03:23;28.70;59.80
71155;DHT22;59375;53.216;5.728;2022-07-17T13:05:48;28.70;59.30
71155;DHT22;59375;53.216;5.728;2022-07-17T13:08:14;28.80;59.10
71155;DHT22;59375;53.216;5.728;2022-07-17T13:10:40;28.80;59.90
71155;DHT22;59375;53.216;5.728;2022-07-17T13:13:06;28.80;59.90
71155;DHT22;59375;53.216;5.728;2022-07-17T13:15:31;28.90;59.40
71155;DHT22;59375;53.216;5.728;2022-07-17T13:17:57;28.90;60.00
71155;DHT22;59375;53.216;5.728;2022-07-17T13:20:23;28.90;59.60
71155;DHT22;59375;53.216;5.728;2022-07-17T13:22:48;28.90;58.90
71155;DHT22;59375;53.216;5.728;2022-07-17T13:25:14;28.90;58.10
71155;DHT22;59375;53.216;5.728;2022-07-17T13:27:39;28.80;58.00
71155;DHT22;59375;53.216;5.728;2022-07-17T13:30:06;28.70;57.50
71155;DHT22;59375;53.216;5.728;2022-07-17T13:32:31;28.70;58.20
71155;DHT22;59375;53.216;5.728;2022-07-17T13:34:57;28.70;57.80
71155;DHT22;59375;53.216;5.728;2022-07-17T13:37:22;28.70;57.80
71155;DHT22;59375;53.216;5.728;2022-07-17T13:39:48;28.70;58.20
71155;DHT22;59375;53.216;5.728;2022-07-17T13:42:13;28.70;57.90
71155;DHT22;59375;53.216;5.728;2022-07-17T13:44:39;28.70;57.70
71155;DHT22;59375;53.216;5.728;2022-07-17T13:47:04;28.60;58.10
71155;DHT22;59375;53.216;5.728;2022-07-17T13:49:30;28.60;57.60
71155;DHT22;59375;53.216;5.728;2022-07-17T13:51:55;28.50;57.60
71155;DHT22;59375;53.216;5.728;2022-07-17T13:54:21;28.50;58.00
71155;DHT22;59375;53.216;5.728;2022-07-17T13:56:47;28.30;57.20
71155;DHT22;59375;53.216;5.728;2022-07-17T13:59:12;28.40;57.90
71155;DHT22;59375;53.216;5.728;2022-07-17T14:01:38;28.50;57.30
71155;DHT22;59375;53.216;5.728;2022-07-17T14:04:04;28.50;56.70
71155;DHT22;59375;53.216;5.728;2022-07-17T14:06:29;28.60;56.90
71155;DHT22;59375;53.216;5.728;2022-07-17T14:08:55;28.70;56.40
71155;DHT22;59375;53.216;5.728;2022-07-17T14:11:21;28.60;56.50
71155;DHT22;59375;53.216;5.728;2022-07-17T14:13:46;28.60;57.20
71155;DHT22;59375;53.216;5.728;2022-07-17T14:16:12;28.40;56.50
71155;DHT22;59375;53.216;5.728;2022-07-17T14:18:37;28.30;57.00
71155;DHT22;59375;53.216;5.728;2022-07-17T14:21:33;28.30;56.60
71155;DHT22;59375;53.216;5.728;2022-07-17T14:23:59;28.40;57.00
71155;DHT22;59375;53.216;5.728;2022-07-17T14:26:25;28.30;56.70
71155;DHT22;59375;53.216;5.728;2022-07-17T14:28:51;28.20;56.70
71155;DHT22;59375;53.216;5.728;2022-07-17T14:31:17;28.20;56.80
71155;DHT22;59375;53.216;5.728;2022-07-17T14:33:43;28.20;56.60
71155;DHT22;59375;53.216;5.728;2022-07-17T14:36:10;28.10;56.20
71155;DHT22;59375;53.216;5.728;2022-07-17T14:38:36;27.90;56.20
71155;DHT22;59375;53.216;5.728;2022-07-17T14:41:01;28.00;56.40
71155;DHT22;59375;53.216;5.728;2022-07-17T14:43:27;28.10;56.00
71155;DHT22;59375;53.216;5.728;2022-07-17T14:45:53;28.20;55.20
71155;DHT22;59375;53.216;5.728;2022-07-17T14:48:19;28.20;55.30
71155;DHT22;59375;53.216;5.728;2022-07-17T14:50:44;28.10;54.60
71155;DHT22;59375;53.216;5.728;2022-07-17T14:53:10;28.00;54.70
71155;DHT22;59375;53.216;5.728;2022-07-17T14:55:35;28.00;55.40
71155;DHT22;59375;53.216;5.728;2022-07-17T14:58:01;28.00;55.60
71155;DHT22;59375;53.216;5.728;2022-07-17T15:00:27;28.00;55.50
71155;DHT22;59375;53.216;5.728;2022-07-17T15:02:52;28.10;55.10
71155;DHT22;59375;53.216;5.728;2022-07-17T15:05:18;28.10;55.10
71155;DHT22;59375;53.216;5.728;2022-07-17T15:07:43;28.10;55.50
71155;DHT22;59375;53.216;5.728;2022-07-17T15:10:09;28.00;55.30
71155;DHT22;59375;53.216;5.728;2022-07-17T15:12:34;28.00;55.50
71155;DHT22;59375;53.216;5.728;2022-07-17T15:15:00;28.00;55.30
71155;DHT22;59375;53.216;5.728;2022-07-17T15:17:25;27.80;54.40
71155;DHT22;59375;53.216;5.728;2022-07-17T15:19:51;27.70;53.90
71155;DHT22;59375;53.216;5.728;2022-07-17T15:22:16;27.70;54.60
71155;DHT22;59375;53.216;5.728;2022-07-17T15:24:42;27.80;53.90
71155;DHT22;59375;53.216;5.728;2022-07-17T15:27:08;27.90;54.30
71155;DHT22;59375;53.216;5.728;2022-07-17T15:29:33;27.80;54.00
71155;DHT22;59375;53.216;5.728;2022-07-17T15:31:59;27.80;54.40
71155;DHT22;59375;53.216;5.728;2022-07-17T15:34:24;27.80;54.30
71155;DHT22;59375;53.216;5.728;2022-07-17T15:36:50;27.60;54.20
71155;DHT22;59375;53.216;5.728;2022-07-17T15:39:15;27.50;54.70
71155;DHT22;59375;53.216;5.728;2022-07-17T15:41:41;27.50;54.60
71155;DHT22;59375;53.216;5.728;2022-07-17T15:44:06;27.50;54.70
71155;DHT22;59375;53.216;5.728;2022-07-17T15:46:32;27.50;54.90
71155;DHT22;59375;53.216;5.728;2022-07-17T15:48:58;27.60;55.10
71155;DHT22;59375;53.216;5.728;2022-07-17T15:51:24;27.70;55.30
71155;DHT22;59375;53.216;5.728;2022-07-17T15:53:51;27.80;54.80
71155;DHT22;59375;53.216;5.728;2022-07-17T15:56:17;27.80;54.90
71155;DHT22;59375;53.216;5.728;2022-07-17T15:58:42;27.80;54.30
71155;DHT22;59375;53.216;5.728;2022-07-17T16:01:08;27.90;53.80
71155;DHT22;59375;53.216;5.728;2022-07-17T16:03:33;27.90;53.80
71155;DHT22;59375;53.216;5.728;2022-07-17T16:05:59;27.80;53.40
71155;DHT22;59375;53.216;5.728;2022-07-17T16:08:25;27.60;53.30
71155;DHT22;59375;53.216;5.728;2022-07-17T16:10:51;27.50;53.90
71155;DHT22;59375;53.216;5.728;2022-07-17T16:13:16;27.40;54.40
71155;DHT22;59375;53.216;5.728;2022-07-17T16:15:42;27.20;54.90
71155;DHT22;59375;53.216;5.728;2022-07-17T16:18:07;27.10;55.00
71155;DHT22;59375;53.216;5.728;2022-07-17T16:20:33;27.10;55.00
71155;DHT22;59375;53.216;5.728;2022-07-17T16:22:58;27.00;54.70
71155;DHT22;59375;53.216;5.728;2022-07-17T16:25:24;26.80;53.80
71155;DHT22;59375;53.216;5.728;2022-07-17T16:27:50;26.80;54.90
71155;DHT22;59375;53.216;5.728;2022-07-17T16:30:15;26.70;55.00
71155;DHT22;59375;53.216;5.728;2022-07-17T16:32:41;26.80;55.90
71155;DHT22;59375;53.216;5.728;2022-07-17T16:35:07;26.90;55.60
71155;DHT22;59375;53.216;5.728;2022-07-17T16:37:33;27.00;55.20
71155;DHT22;59375;53.216;5.728;2022-07-17T16:39:58;27.00;55.10
71155;DHT22;59375;53.216;5.728;2022-07-17T16:42:24;26.90;55.00
71155;DHT22;59375;53.216;5.728;2022-07-17T16:44:49;26.70;54.90
71155;DHT22;59375;53.216;5.728;2022-07-17T16:47:15;26.60;55.40
71155;DHT22;59375;53.216;5.728;2022-07-17T16:49:40;26.50;55.50
71155;DHT22;59375;53.216;5.728;2022-07-17T16:52:07;26.40;56.20
71155;DHT22;59375;53.216;5.728;2022-07-17T16:54:32;26.50;56.10
71155;DHT22;59375;53.216;5.728;2022-07-17T16:56:58;26.50;55.70
71155;DHT22;59375;53.216;5.728;2022-07-17T16:59:23;26.40;55.60
71155;DHT22;59375;53.216;5.728;2022-07-17T17:01:51;26.30;55.60
71155;DHT22;59375;53.216;5.728;2022-07-17T17:04:17;26.20;55.50
71155;DHT22;59375;53.216;5.728;2022-07-17T17:06:43;26.00;56.60
71155;DHT22;59375;53.216;5.728;2022-07-17T17:09:08;25.80;56.80
71155;DHT22;59375;53.216;5.728;2022-07-17T17:11:34;25.80;57.10
71155;DHT22;59375;53.216;5.728;2022-07-17T17:14:00;25.70;57.20
71155;DHT22;59375;53.216;5.728;2022-07-17T17:16:25;25.60;57.60
71155;DHT22;59375;53.216;5.728;2022-07-17T17:18:51;25.60;57.70
71155;DHT22;59375;53.216;5.728;2022-07-17T17:21:16;25.80;58.30
71155;DHT22;59375;53.216;5.728;2022-07-17T17:23:50;25.80;57.80
71155;DHT22;59375;53.216;5.728;2022-07-17T17:26:17;26.00;58.10
71155;DHT22;59375;53.216;5.728;2022-07-17T17:28:42;26.00;59.30
71155;DHT22;59375;53.216;5.728;2022-07-17T17:31:08;26.10;58.20
71155;DHT22;59375;53.216;5.728;2022-07-17T17:33:34;26.10;58.20
71155;DHT22;59375;53.216;5.728;2022-07-17T17:35:59;26.10;57.80
71155;DHT22;59375;53.216;5.728;2022-07-17T17:38:25;26.00;57.50
71155;DHT22;59375;53.216;5.728;2022-07-17T17:40:51;25.90;57.80
71155;DHT22;59375;53.216;5.728;2022-07-17T17:43:17;25.90;58.30
71155;DHT22;59375;53.216;5.728;2022-07-17T17:45:42;25.80;57.60
71155;DHT22;59375;53.216;5.728;2022-07-17T17:48:08;25.70;57.60
71155;DHT22;59375;53.216;5.728;2022-07-17T17:50:35;25.70;57.70
71155;DHT22;59375;53.216;5.728;2022-07-17T17:53:01;25.60;57.80
71155;DHT22;59375;53.216;5.728;2022-07-17T17:55:26;25.60;58.00
71155;DHT22;59375;53.216;5.728;2022-07-17T17:57:52;25.50;58.60
71155;DHT22;59375;53.216;5.728;2022-07-17T18:00:17;25.50;58.60
71155;DHT22;59375;53.216;5.728;2022-07-17T18:02:44;25.50;58.60
71155;DHT22;59375;53.216;5.728;2022-07-17T18:05:10;25.30;58.70
71155;DHT22;59375;53.216;5.728;2022-07-17T18:07:35;25.30;59.20
71155;DHT22;59375;53.216;5.728;2022-07-17T18:10:02;25.20;59.10
71155;DHT22;59375;53.216;5.728;2022-07-17T18:12:27;25.00;59.50
71155;DHT22;59375;53.216;5.728;2022-07-17T18:14:53;25.00;59.60
71155;DHT22;59375;53.216;5.728;2022-07-17T18:17:19;24.90;59.60
71155;DHT22;59375;53.216;5.728;2022-07-17T18:19:44;24.90;60.50
71155;DHT22;59375;53.216;5.728;2022-07-17T18:22:10;24.80;61.60
71155;DHT22;59375;53.216;5.728;2022-07-17T18:24:36;24.70;62.00
71155;DHT22;59375;53.216;5.728;2022-07-17T18:27:01;24.60;62.60
71155;DHT22;59375;53.216;5.728;2022-07-17T18:29:27;24.60;62.60
71155;DHT22;59375;53.216;5.728;2022-07-17T18:31:52;24.60;62.30
71155;DHT22;59375;53.216;5.728;2022-07-17T18:34:18;24.50;62.40
71155;DHT22;59375;53.216;5.728;2022-07-17T18:36:45;24.40;62.70
71155;DHT22;59375;53.216;5.728;2022-07-17T18:39:11;24.40;63.10
71155;DHT22;59375;53.216;5.728;2022-07-17T18:41:38;24.30;63.20
71155;DHT22;59375;53.216;5.728;2022-07-17T18:44:04;24.30;63.20
71155;DHT22;59375;53.216;5.728;2022-07-17T18:46:30;24.20;63.60
71155;DHT22;59375;53.216;5.728;2022-07-17T18:48:55;24.20;63.90
71155;DHT22;59375;53.216;5.728;2022-07-17T18:51:21;24.20;63.70
71155;DHT22;59375;53.216;5.728;2022-07-17T18:53:47;24.10;63.60
71155;DHT22;59375;53.216;5.728;2022-07-17T18:56:12;24.10;64.20
71155;DHT22;59375;53.216;5.728;2022-07-17T18:58:38;24.10;65.10
71155;DHT22;59375;53.216;5.728;2022-07-17T19:01:04;24.00;65.30
71155;DHT22;59375;53.216;5.728;2022-07-17T19:03:30;24.00;65.60
71155;DHT22;59375;53.216;5.728;2022-07-17T19:05:55;23.90;66.00
71155;DHT22;59375;53.216;5.728;2022-07-17T19:08:21;23.80;66.50
71155;DHT22;59375;53.216;5.728;2022-07-17T19:10:46;23.80;66.70
71155;DHT22;59375;53.216;5.728;2022-07-17T19:13:12;23.70;66.40
71155;DHT22;59375;53.216;5.728;2022-07-17T19:15:38;23.70;66.40
71155;DHT22;59375;53.216;5.728;2022-07-17T19:18:03;23.60;66.20
71155;DHT22;59375;53.216;5.728;2022-07-17T19:20:29;23.60;66.40
71155;DHT22;59375;53.216;5.728;2022-07-17T19:22:54;23.60;66.60
71155;DHT22;59375;53.216;5.728;2022-07-17T19:25:20;23.50;67.00
71155;DHT22;59375;53.216;5.728;2022-07-17T19:27:46;23.40;67.50
71155;DHT22;59375;53.216;5.728;2022-07-17T19:30:11;23.30;68.00
71155;DHT22;59375;53.216;5.728;2022-07-17T19:32:37;23.20;68.40
71155;DHT22;59375;53.216;5.728;2022-07-17T19:35:03;23.10;69.20
71155;DHT22;59375;53.216;5.728;2022-07-17T19:37:29;23.00;70.30
71155;DHT22;59375;53.216;5.728;2022-07-17T19:39:55;23.00;70.30
71155;DHT22;59375;53.216;5.728;2022-07-17T19:42:21;22.90;70.20
71155;DHT22;59375;53.216;5.728;2022-07-17T19:44:47;22.80;70.50
71155;DHT22;59375;53.216;5.728;2022-07-17T19:47:13;22.70;70.60
71155;DHT22;59375;53.216;5.728;2022-07-17T19:49:38;22.50;70.70
71155;DHT22;59375;53.216;5.728;2022-07-17T19:52:04;22.50;71.00
71155;DHT22;59375;53.216;5.728;2022-07-17T19:54:30;22.40;71.70
71155;DHT22;59375;53.216;5.728;2022-07-17T19:56:55;22.30;71.90
71155;DHT22;59375;53.216;5.728;2022-07-17T19:59:21;22.30;72.50
71155;DHT22;59375;53.216;5.728;2022-07-17T20:01:47;22.20;73.40
71155;DHT22;59375;53.216;5.728;2022-07-17T20:04:14;22.10;73.60
71155;DHT22;59375;53.216;5.728;2022-07-17T20:06:40;22.00;73.50
71155;DHT22;59375;53.216;5.728;2022-07-17T20:09:06;21.90;73.30
71155;DHT22;59375;53.216;5.728;2022-07-17T20:11:32;21.80;73.60
71155;DHT22;59375;53.216;5.728;2022-07-17T20:13:57;21.70;74.90
71155;DHT22;59375;53.216;5.728;2022-07-17T20:16:24;21.40;76.10
71155;DHT22;59375;53.216;5.728;2022-07-17T20:18:50;21.30;76.80
71155;DHT22;59375;53.216;5.728;2022-07-17T20:21:16;21.20;77.80
71155;DHT22;59375;53.216;5.728;2022-07-17T20:23:42;21.20;78.50
71155;DHT22;59375;53.216;5.728;2022-07-17T20:26:08;21.20;79.10
71155;DHT22;59375;53.216;5.728;2022-07-17T20:28:33;21.10;79.20
71155;DHT22;59375;53.216;5.728;2022-07-17T20:30:59;21.00;79.60
71155;DHT22;59375;53.216;5.728;2022-07-17T20:33:25;21.00;79.90
71155;DHT22;59375;53.216;5.728;2022-07-17T20:35:50;21.00;79.90
71155;DHT22;59375;53.216;5.728;2022-07-17T20:38:17;21.00;79.40
71155;DHT22;59375;53.216;5.728;2022-07-17T20:40:43;20.90;78.80
71155;DHT22;59375;53.216;5.728;2022-07-17T20:43:09;20.90;79.10
71155;DHT22;59375;53.216;5.728;2022-07-17T20:45:38;20.90;79.70
71155;DHT22;59375;53.216;5.728;2022-07-17T20:48:04;20.70;79.90
71155;DHT22;59375;53.216;5.728;2022-07-17T20:50:30;20.60;80.40
71155;DHT22;59375;53.216;5.728;2022-07-17T20:52:56;20.50;81.20
71155;DHT22;59375;53.216;5.728;2022-07-17T20:55:22;20.40;81.90
71155;DHT22;59375;53.216;5.728;2022-07-17T20:57:48;20.40;82.20
71155;DHT22;59375;53.216;5.728;2022-07-17T21:00:14;20.40;82.20
71155;DHT22;59375;53.216;5.728;2022-07-17T21:02:39;20.40;82.20
71155;DHT22;59375;53.216;5.728;2022-07-17T21:05:06;20.40;82.50
71155;DHT22;59375;53.216;5.728;2022-07-17T21:07:31;20.30;83.00
71155;DHT22;59375;53.216;5.728;2022-07-17T21:09:57;20.30;83.20
71155;DHT22;59375;53.216;5.728;2022-07-17T21:12:23;20.20;83.00
71155;DHT22;59375;53.216;5.728;2022-07-17T21:14:49;20.20;83.00
71155;DHT22;59375;53.216;5.728;2022-07-17T21:17:14;20.20;83.30
71155;DHT22;59375;53.216;5.728;2022-07-17T21:19:40;20.10;83.30
71155;DHT22;59375;53.216;5.728;2022-07-17T21:22:05;20.10;83.40
71155;DHT22;59375;53.216;5.728;2022-07-17T21:24:31;20.10;83.60
71155;DHT22;59375;53.216;5.728;2022-07-17T21:26:57;20.10;83.50
71155;DHT22;59375;53.216;5.728;2022-07-17T21:29:23;20.10;83.40
71155;DHT22;59375;53.216;5.728;2022-07-17T21:31:48;20.10;83.50
71155;DHT22;59375;53.216;5.728;2022-07-17T21:34:14;20.10;83.50
71155;DHT22;59375;53.216;5.728;2022-07-17T21:36:39;20.10;83.60
71155;DHT22;59375;53.216;5.728;2022-07-17T21:39:05;20.10;83.80
71155;DHT22;59375;53.216;5.728;2022-07-17T21:41:31;20.00;84.70
71155;DHT22;59375;53.216;5.728;2022-07-17T21:43:56;20.00;84.50
71155;DHT22;59375;53.216;5.728;2022-07-17T21:46:22;20.10;84.70
71155;DHT22;59375;53.216;5.728;2022-07-17T21:48:47;20.00;84.70
71155;DHT22;59375;53.216;5.728;2022-07-17T21:51:13;20.00;84.70
71155;DHT22;59375;53.216;5.728;2022-07-17T21:53:38;20.00;84.80
71155;DHT22;59375;53.216;5.728;2022-07-17T21:56:04;20.00;85.10
71155;DHT22;59375;53.216;5.728;2022-07-17T21:58:30;20.00;85.40
71155;DHT22;59375;53.216;5.728;2022-07-17T22:00:56;19.90;85.50
71155;DHT22;59375;53.216;5.728;2022-07-17T22:03:23;19.80;85.50
71155;DHT22;59375;53.216;5.728;2022-07-17T22:05:49;19.70;86.00
71155;DHT22;59375;53.216;5.728;2022-07-17T22:08:15;19.50;86.80
71155;DHT22;59375;53.216;5.728;2022-07-17T22:10:41;19.40;87.20
71155;DHT22;59375;53.216;5.728;2022-07-17T22:13:07;19.30;87.80
71155;DHT22;59375;53.216;5.728;2022-07-17T22:15:32;19.10;88.20
71155;DHT22;59375;53.216;5.728;2022-07-17T22:17:58;19.00;89.00
71155;DHT22;59375;53.216;5.728;2022-07-17T22:20:24;18.90;89.40
71155;DHT22;59375;53.216;5.728;2022-07-17T22:22:50;18.80;89.60
71155;DHT22;59375;53.216;5.728;2022-07-17T22:25:16;18.80;89.60
71155;DHT22;59375;53.216;5.728;2022-07-17T22:27:42;18.90;89.60
71155;DHT22;59375;53.216;5.728;2022-07-17T22:30:08;18.80;89.50
71155;DHT22;59375;53.216;5.728;2022-07-17T22:32:34;18.80;89.80
71155;DHT22;59375;53.216;5.728;2022-07-17T22:35:01;18.60;90.00
71155;DHT22;59375;53.216;5.728;2022-07-17T22:37:27;18.50;90.20
71155;DHT22;59375;53.216;5.728;2022-07-17T22:39:52;18.40;90.40
71155;DHT22;59375;53.216;5.728;2022-07-17T22:42:18;18.30;90.60
71155;DHT22;59375;53.216;5.728;2022-07-17T22:44:43;18.30;90.70
71155;DHT22;59375;53.216;5.728;2022-07-17T22:47:09;18.40;90.80
71155;DHT22;59375;53.216;5.728;2022-07-17T22:49:35;18.30;90.70
71155;DHT22;59375;53.216;5.728;2022-07-17T22:52:01;18.20;90.90
71155;DHT22;59375;53.216;5.728;2022-07-17T22:54:26;18.10;91.00
71155;DHT22;59375;53.216;5.728;2022-07-17T22:56:52;18.10;91.00
71155;DHT22;59375;53.216;5.728;2022-07-17T22:59:18;18.10;91.00
71155;DHT22;59375;53.216;5.728;2022-07-17T23:01:44;18.20;91.00
71155;DHT22;59375;53.216;5.728;2022-07-17T23:04:10;18.20;90.90
71155;DHT22;59375;53.216;5.728;2022-07-17T23:06:36;18.30;90.80
71155;DHT22;59375;53.216;5.728;2022-07-17T23:09:03;18.40;90.80
71155;DHT22;59375;53.216;5.728;2022-07-17T23:11:29;18.40;91.00
71155;DHT22;59375;53.216;5.728;2022-07-17T23:13:55;18.50;91.20
71155;DHT22;59375;53.216;5.728;2022-07-17T23:16:20;18.50;91.20
71155;DHT22;59375;53.216;5.728;2022-07-17T23:18:46;18.50;91.40
71155;DHT22;59375;53.216;5.728;2022-07-17T23:21:12;18.50;91.60
71155;DHT22;59375;53.216;5.728;2022-07-17T23:23:37;18.50;91.70
71155;DHT22;59375;53.216;5.728;2022-07-17T23:26:03;18.50;91.80
71155;DHT22;59375;53.216;5.728;2022-07-17T23:28:28;18.50;91.90
71155;DHT22;59375;53.216;5.728;2022-07-17T23:30:54;18.50;92.00
71155;DHT22;59375;53.216;5.728;2022-07-17T23:33:20;18.50;92.10
71155;DHT22;59375;53.216;5.728;2022-07-17T23:35:46;18.50;92.20
71155;DHT22;59375;53.216;5.728;2022-07-17T23:38:11;18.60;92.30
71155;DHT22;59375;53.216;5.728;2022-07-17T23:40:38;18.60;92.40
71155;DHT22;59375;53.216;5.728;2022-07-17T23:43:03;18.60;92.40
71155;DHT22;59375;53.216;5.728;2022-07-17T23:45:29;18.50;92.40
71155;DHT22;59375;53.216;5.728;2022-07-17T23:47:55;18.50;92.50
71155;DHT22;59375;53.216;5.728;2022-07-17T23:50:20;18.50;92.50
71155;DHT22;59375;53.216;5.728;2022-07-17T23:52:46;18.50;92.60
71155;DHT22;59375;53.216;5.728;2022-07-17T23:55:11;18.50;92.60
71155;DHT22;59375;53.216;5.728;2022-07-17T23:57:37;18.60;92.70
